TAFS

Station TAF
VRMM
VRMM 221700Z 2218/2324 02006KT 8000 FEW018TCU BKN120 TEMPO 2218/2224 5000 TSRA FEW018CB=
VRMH
VRMH 221700Z 2218/2324 04006KT 7000 FEW018TCU TEMPO 2218/2224 5000 TSRA FEW018CB=
VRMK
VRMK 221700Z 2218/2318 01005KT 9000 FEW018TCU 2218/2224 FEW019CB=
VRMT
VRMT 221700Z 2218/2318 33004KT 9999 FEW018 2218/2224 FEW019CB =
VRMG
VRMG 221700Z 2218/2324 34009KT 9999 FEW018TCU TEMPO 2218/2224 FEW019CB=